Palflot-5 — UBHC — position and weather

sailwx.info

Track history (hours):
 
Tides and Currents Weather Stations Pressure Air Temp Water Temp Dewpoint Dewpoint Depression Visibility Wind Speed Wind Dir Waves Ship Positions

Palflot-5

Last reported at 2017-Jul-23 12:01 UTC. Time now 2017-Jul-26 08:53 UTC.
Position N 45°30' E 036°45'.

Length 122 m; draft 2.4 m.

Type: Tanker. MMSI: 273443040.

Date/timePositionNaut miles runAvg speedWind from/ knotsBaromVisibWave heightAir tempDewpointWater temp
2017-Jul-23 12:01N 45°30' E 036°45'0 6.6
2017-Jul-23 11:58N 45°30' E 036°44'3 6.6
2017-Jul-23 11:29N 45°27' E 036°42'3 6.8
2017-Jul-23 11:00N 45°24' E 036°41'3 6.5
2017-Jul-23 10:30N 45°21' E 036°39'3 6.9
2017-Jul-23 10:00N 45°19' E 036°35'4 6.4
2017-Jul-23 09:19N 45°17' E 036°29'1 3.8
2017-Jul-23 09:00N 45°16' E 036°29'2 3.7
2017-Jul-23 08:30N 45°14' E 036°29'1 0.0
2017-Jul-22 14:38N 45°14' E 036°29'0 0.0
2017-Jul-22 12:53N 45°14' E 036°29'0 0.0
2017-Jul-22 10:37N 45°14' E 036°30'0 1.7
2017-Jul-22 10:27N 45°14' E 036°30'1 0.1
2017-Jul-21 10:01N 45°12' E 036°29'0 2.9
2017-Jul-21 09:58N 45°12' E 036°29'6 5.3
2017-Jul-21 08:52N 45°18' E 036°29'2 5.8
2017-Jul-21 08:30N 45°19' E 036°32'3 5.4
2017-Jul-21 08:00N 45°20' E 036°36'3 5.3
2017-Jul-21 07:30N 45°21' E 036°39'3 5.2
2017-Jul-21 07:01N 45°23' E 036°40'3 5.1
2017-Jul-21 06:30N 45°26' E 036°41'  
Track history (hours):
 
Tides and Currents Weather Stations Pressure Air Temp Water Temp Dewpoint Dewpoint Depression Visibility Wind Speed Wind Dir Waves Ship Positions

Palflot-5

Last reported at 2017-Jul-23 12:01 UTC. Time now 2017-Jul-26 08:53 UTC.
Position N 45°30' E 036°45'.

Length 122 m; draft 2.4 m.

Type: Tanker. MMSI: 273443040.

Date/timePositionNaut miles runAvg speedWind from/ knotsBaromVisibWave heightAir tempDewpointWater temp
2017-Jul-23 12:01N 45°30' E 036°45'0 6.6
2017-Jul-23 11:58N 45°30' E 036°44'3 6.6
2017-Jul-23 11:29N 45°27' E 036°42'3 6.8
2017-Jul-23 11:00N 45°24' E 036°41'3 6.5
2017-Jul-23 10:30N 45°21' E 036°39'3 6.9
2017-Jul-23 10:00N 45°19' E 036°35'4 6.4
2017-Jul-23 09:19N 45°17' E 036°29'1 3.8
2017-Jul-23 09:00N 45°16' E 036°29'2 3.7
2017-Jul-23 08:30N 45°14' E 036°29'1 0.0
2017-Jul-22 14:38N 45°14' E 036°29'0 0.0
2017-Jul-22 12:53N 45°14' E 036°29'0 0.0
2017-Jul-22 10:37N 45°14' E 036°30'0 1.7
2017-Jul-22 10:27N 45°14' E 036°30'1 0.1
2017-Jul-21 10:01N 45°12' E 036°29'0 2.9
2017-Jul-21 09:58N 45°12' E 036°29'6 5.3
2017-Jul-21 08:52N 45°18' E 036°29'2 5.8
2017-Jul-21 08:30N 45°19' E 036°32'3 5.4
2017-Jul-21 08:00N 45°20' E 036°36'3 5.3
2017-Jul-21 07:30N 45°21' E 036°39'3 5.2
2017-Jul-21 07:01N 45°23' E 036°40'3 5.1
2017-Jul-21 06:30N 45°26' E 036°41'  

Dump ship's entire track history